Airfield :
LOGIN :

Register | Disclaimer

   EN    FR    IT 

 










Legend :    VFR   Marginal VFR   IFR   Intensive IFR   Very Intensive IFR
Visi :
Ceiling :
>= 8 km
>= 3000ft
5 to 8 km
1000 to 3000 ft
1500m to 5 km
500 to 1000 ft
800 to 1500m
200 to 500 ft
< 800m
< 200 ft
Symbols :   Thunderstorms  Fog  Heavy snow  Heavy precipitations  Wind > 20 kt
SIGMETs :     Misc.  Thunderstorms  Icing  Turbulence  Mountain Waves  Volcanic Ashes






- Airport Elevation : 526 ft
- IATA code : LTN


EGGW - London Luton

CURRENT METAR :
  • 311150Z AUTO 18014G24KT 150V230 6000 -RA BKN005/// OVC011/// //////CB 13/12 Q1006

EXPIRED METARs :
  • 311120Z AUTO 18013G24KT 140V210 9999 -RA BKN005/// OVC010/// //////CB 13/12 Q1006 RERA REDZ
  • 311050Z AUTO 18015G30KT 150V210 9999 -RA OVC011/// //////TCU 14/12 Q1007
  • 311020Z AUTO 17015G29KT 150V220 9999 OVC010 14/12 Q1007
  • 310950Z AUTO 17014G24KT 9999 OVC009 13/12 Q1008

TAF TAF EGGW
Valid from the 31 at 12:00 until the 01 at 12:00 UTC


311056Z 3112/0112 19020G35KT 9999 BKN012
TEMPO 3112/3114 6000 RA BKN009
PROB40
TEMPO 3112/3114 4000 +RA
BECMG 3113/3115 23012KT SCT030
TEMPO 3114/3118 24017G27KT
PROB30
TEMPO 3123/0104 8000 -RADZ
BECMG 0104/0106 19017G30KT SCT006 BKN010
TEMPO 0104/0112 3000 RADZ BKN006
ATIS : +44 1582 395 204



MET'MAP, your aeronautical weather chart ! - Copyright ORBIFLY December 2007 - Disclaimer

ORBIFLY MET'MAP TEAM :

Programming & Development : Alexandra Zaïnal
Concept & original design : Baudouin d'Aumeries
Assistance for programming : Marc-Olivier Méhu
Technical & hardware support : Manuel Goepfert

Contact : metmap@orbifly.com




SOURCES & CREDITS :

   NOAA